sensor_id;sensor_type;location;lat;lon;timestamp;pressure;altitude;pressure_sealevel;temperature;humidity
64841;BME280;51307;52.162;7.560;2022-08-03T00:01:37;101020.47;;;20.90;67.00
64841;BME280;51307;52.162;7.560;2022-08-03T00:04:04;101013.34;;;20.90;66.79
64841;BME280;51307;52.162;7.560;2022-08-03T00:06:29;101016.78;;;20.91;66.86
64841;BME280;51307;52.162;7.560;2022-08-03T00:08:55;101015.16;;;20.90;67.00
64841;BME280;51307;52.162;7.560;2022-08-03T00:11:21;101018.66;;;20.90;67.13
64841;BME280;51307;52.162;7.560;2022-08-03T00:13:46;101012.50;;;20.90;67.13
64841;BME280;51307;52.162;7.560;2022-08-03T00:16:12;101004.53;;;20.90;67.06
64841;BME280;51307;52.162;7.560;2022-08-03T00:18:39;100999.22;;;20.90;66.89
64841;BME280;51307;52.162;7.560;2022-08-03T00:21:05;100996.56;;;20.90;66.86
64841;BME280;51307;52.162;7.560;2022-08-03T00:23:31;100996.41;;;20.85;66.88
64841;BME280;51307;52.162;7.560;2022-08-03T00:25:57;100995.63;;;20.84;66.80
64841;BME280;51307;52.162;7.560;2022-08-03T00:28:23;100993.97;;;20.83;66.91
64841;BME280;51307;52.162;7.560;2022-08-03T00:30:49;100999.94;;;20.78;67.12
64841;BME280;51307;52.162;7.560;2022-08-03T00:33:14;100997.94;;;20.74;67.20
64841;BME280;51307;52.162;7.560;2022-08-03T00:35:40;101002.44;;;20.73;67.30
64841;BME280;51307;52.162;7.560;2022-08-03T00:38:05;101002.25;;;20.68;67.15
64841;BME280;51307;52.162;7.560;2022-08-03T00:40:31;101005.09;;;20.67;67.20
64841;BME280;51307;52.162;7.560;2022-08-03T00:43:00;100999.34;;;20.70;67.39
64841;BME280;51307;52.162;7.560;2022-08-03T00:45:28;100998.16;;;20.72;67.02
64841;BME280;51307;52.162;7.560;2022-08-03T00:47:54;101000.81;;;20.72;67.00
64841;BME280;51307;52.162;7.560;2022-08-03T00:50:23;101007.94;;;20.72;67.14
64841;BME280;51307;52.162;7.560;2022-08-03T00:52:51;100992.44;;;20.69;67.08
64841;BME280;51307;52.162;7.560;2022-08-03T00:55:17;101001.25;;;20.63;67.40
64841;BME280;51307;52.162;7.560;2022-08-03T00:57:43;100997.38;;;20.58;67.75
64841;BME280;51307;52.162;7.560;2022-08-03T01:00:13;100994.38;;;20.55;67.69
64841;BME280;51307;52.162;7.560;2022-08-03T01:02:40;100994.78;;;20.52;67.69
64841;BME280;51307;52.162;7.560;2022-08-03T01:05:06;100990.91;;;20.48;67.97
64841;BME280;51307;52.162;7.560;2022-08-03T01:18:54;100978.63;;;20.28;68.65
64841;BME280;51307;52.162;7.560;2022-08-03T01:21:31;100991.88;;;20.28;68.73
64841;BME280;51307;52.162;7.560;2022-08-03T01:27:06;100985.97;;;20.26;68.58
64841;BME280;51307;52.162;7.560;2022-08-03T01:29:56;100981.88;;;20.24;68.85
64841;BME280;51307;52.162;7.560;2022-08-03T01:32:36;100994.72;;;20.27;68.61
64841;BME280;51307;52.162;7.560;2022-08-03T01:35:09;100989.63;;;20.25;68.60
64841;BME280;51307;52.162;7.560;2022-08-03T01:37:44;100984.97;;;20.21;68.73
64841;BME280;51307;52.162;7.560;2022-08-03T01:40:14;100988.47;;;20.14;68.96
64841;BME280;51307;52.162;7.560;2022-08-03T01:42:42;100984.19;;;20.13;69.25
64841;BME280;51307;52.162;7.560;2022-08-03T01:45:12;100980.94;;;20.11;69.30
64841;BME280;51307;52.162;7.560;2022-08-03T01:47:40;100985.63;;;20.09;69.61
64841;BME280;51307;52.162;7.560;2022-08-03T01:50:08;100984.22;;;20.07;69.66
64841;BME280;51307;52.162;7.560;2022-08-03T01:52:37;100981.59;;;20.00;69.57
64841;BME280;51307;52.162;7.560;2022-08-03T01:55:06;100986.50;;;19.96;69.87
64841;BME280;51307;52.162;7.560;2022-08-03T01:57:34;100979.19;;;19.92;69.65
64841;BME280;51307;52.162;7.560;2022-08-03T02:00:03;100984.47;;;19.85;70.13
64841;BME280;51307;52.162;7.560;2022-08-03T02:02:31;100981.25;;;19.76;70.14
64841;BME280;51307;52.162;7.560;2022-08-03T02:04:59;100980.03;;;19.72;70.59
64841;BME280;51307;52.162;7.560;2022-08-03T02:07:26;100983.31;;;19.68;70.61
64841;BME280;51307;52.162;7.560;2022-08-03T02:09:55;100977.22;;;19.61;70.88
64841;BME280;51307;52.162;7.560;2022-08-03T02:12:24;100979.28;;;19.59;70.78
64841;BME280;51307;52.162;7.560;2022-08-03T02:14:53;100978.47;;;19.58;71.03
64841;BME280;51307;52.162;7.560;2022-08-03T02:17:23;100979.47;;;19.50;71.06
64841;BME280;51307;52.162;7.560;2022-08-03T02:19:51;100979.50;;;19.44;71.43
64841;BME280;51307;52.162;7.560;2022-08-03T02:22:17;100983.81;;;19.38;71.36
64841;BME280;51307;52.162;7.560;2022-08-03T02:24:43;100980.34;;;19.31;71.86
64841;BME280;51307;52.162;7.560;2022-08-03T02:27:17;100964.25;;;19.26;71.87
64841;BME280;51307;52.162;7.560;2022-08-03T02:29:47;100977.50;;;19.26;72.20
64841;BME280;51307;52.162;7.560;2022-08-03T02:32:19;100973.25;;;19.25;72.21
64841;BME280;51307;52.162;7.560;2022-08-03T02:34:48;100967.34;;;19.23;72.37
64841;BME280;51307;52.162;7.560;2022-08-03T02:37:18;100970.97;;;19.22;72.53
64841;BME280;51307;52.162;7.560;2022-08-03T02:39:46;100970.59;;;19.25;72.62
64841;BME280;51307;52.162;7.560;2022-08-03T02:42:14;100973.44;;;19.23;72.27
64841;BME280;51307;52.162;7.560;2022-08-03T02:44:47;100969.38;;;19.21;72.51
64841;BME280;51307;52.162;7.560;2022-08-03T02:47:14;100966.31;;;19.17;72.81
64841;BME280;51307;52.162;7.560;2022-08-03T02:49:43;100960.59;;;19.20;72.92
64841;BME280;51307;52.162;7.560;2022-08-03T02:52:12;100969.13;;;19.22;72.81
64841;BME280;51307;52.162;7.560;2022-08-03T02:54:39;100972.63;;;19.23;72.73
64841;BME280;51307;52.162;7.560;2022-08-03T02:57:07;100976.69;;;19.19;72.72
64841;BME280;51307;52.162;7.560;2022-08-03T02:59:36;100975.47;;;19.14;73.01
64841;BME280;51307;52.162;7.560;2022-08-03T03:02:03;100970.19;;;19.14;73.10
64841;BME280;51307;52.162;7.560;2022-08-03T03:04:29;100972.22;;;19.12;72.91
64841;BME280;51307;52.162;7.560;2022-08-03T03:06:55;100973.66;;;19.08;73.16
64841;BME280;51307;52.162;7.560;2022-08-03T03:09:22;100970.00;;;19.09;73.28
64841;BME280;51307;52.162;7.560;2022-08-03T03:11:49;100968.16;;;19.10;73.28
64841;BME280;51307;52.162;7.560;2022-08-03T03:14:17;100969.38;;;19.07;73.24
64841;BME280;51307;52.162;7.560;2022-08-03T03:16:45;100974.44;;;19.09;73.37
64841;BME280;51307;52.162;7.560;2022-08-03T03:19:13;100972.84;;;19.08;73.40
64841;BME280;51307;52.162;7.560;2022-08-03T03:21:42;100964.44;;;19.04;73.36
64841;BME280;51307;52.162;7.560;2022-08-03T03:24:09;100965.88;;;19.00;73.47
64841;BME280;51307;52.162;7.560;2022-08-03T03:26:35;100971.16;;;19.00;73.37
64841;BME280;51307;52.162;7.560;2022-08-03T03:29:01;100973.63;;;18.95;73.53
64841;BME280;51307;52.162;7.560;2022-08-03T03:31:27;100976.25;;;18.88;73.50
64841;BME280;51307;52.162;7.560;2022-08-03T03:33:57;100975.03;;;18.84;73.69
64841;BME280;51307;52.162;7.560;2022-08-03T03:36:24;100977.06;;;18.76;73.77
64841;BME280;51307;52.162;7.560;2022-08-03T03:38:49;100972.59;;;18.76;74.09
64841;BME280;51307;52.162;7.560;2022-08-03T03:41:15;100979.50;;;18.70;74.19
64841;BME280;51307;52.162;7.560;2022-08-03T03:43:42;100970.97;;;18.68;74.08
64841;BME280;51307;52.162;7.560;2022-08-03T03:46:07;100974.41;;;18.62;74.20
64841;BME280;51307;52.162;7.560;2022-08-03T03:48:37;100975.00;;;18.58;74.47
64841;BME280;51307;52.162;7.560;2022-08-03T03:51:03;100985.78;;;18.56;74.53
64841;BME280;51307;52.162;7.560;2022-08-03T03:53:29;100974.19;;;18.50;74.85
64841;BME280;51307;52.162;7.560;2022-08-03T03:55:55;100977.66;;;18.51;75.02
64841;BME280;51307;52.162;7.560;2022-08-03T03:58:20;100972.38;;;18.51;74.91
64841;BME280;51307;52.162;7.560;2022-08-03T04:00:46;100974.00;;;18.52;74.79
64841;BME280;51307;52.162;7.560;2022-08-03T04:03:12;100971.94;;;18.47;74.73
64841;BME280;51307;52.162;7.560;2022-08-03T04:05:37;100981.09;;;18.45;75.05
64841;BME280;51307;52.162;7.560;2022-08-03T04:08:21;100973.75;;;18.40;75.20
64841;BME280;51307;52.162;7.560;2022-08-03T04:11:27;100972.53;;;18.36;75.13
64841;BME280;51307;52.162;7.560;2022-08-03T04:14:24;100969.69;;;18.31;75.50
64841;BME280;51307;52.162;7.560;2022-08-03T04:16:55;100973.34;;;18.30;75.44
64841;BME280;51307;52.162;7.560;2022-08-03T04:19:36;100971.69;;;18.29;75.58
64841;BME280;51307;52.162;7.560;2022-08-03T04:22:06;100965.19;;;18.25;75.66
64841;BME280;51307;52.162;7.560;2022-08-03T04:24:45;100967.22;;;18.23;75.97
64841;BME280;51307;52.162;7.560;2022-08-03T04:27:15;100968.84;;;18.24;75.73
64841;BME280;51307;52.162;7.560;2022-08-03T04:29:46;100971.28;;;18.25;75.98
64841;BME280;51307;52.162;7.560;2022-08-03T04:32:15;100976.78;;;18.24;75.91
64841;BME280;51307;52.162;7.560;2022-08-03T04:34:41;100971.06;;;18.20;76.03
64841;BME280;51307;52.162;7.560;2022-08-03T04:37:21;100969.84;;;18.23;75.92
64841;BME280;51307;52.162;7.560;2022-08-03T04:39:52;100978.41;;;18.25;76.21
64841;BME280;51307;52.162;7.560;2022-08-03T04:42:21;100981.06;;;18.31;76.21
64841;BME280;51307;52.162;7.560;2022-08-03T04:44:47;100976.59;;;18.32;76.00
64841;BME280;51307;52.162;7.560;2022-08-03T04:47:14;100975.78;;;18.38;76.17
64841;BME280;51307;52.162;7.560;2022-08-03T04:49:41;100976.81;;;18.44;76.06
64841;BME280;51307;52.162;7.560;2022-08-03T04:52:07;100980.28;;;18.51;75.99
64841;BME280;51307;52.162;7.560;2022-08-03T04:54:44;100977.66;;;18.58;76.08
64841;BME280;51307;52.162;7.560;2022-08-03T04:57:11;100983.16;;;18.63;75.92
64841;BME280;51307;52.162;7.560;2022-08-03T04:59:37;100982.56;;;18.67;75.72
64841;BME280;51307;52.162;7.560;2022-08-03T05:02:03;100981.13;;;18.71;75.56
64841;BME280;51307;52.162;7.560;2022-08-03T05:04:28;100982.59;;;18.74;75.68
64841;BME280;51307;52.162;7.560;2022-08-03T05:06:54;100987.25;;;18.79;75.67
64841;BME280;51307;52.162;7.560;2022-08-03T05:09:19;100977.91;;;18.83;75.85
64841;BME280;51307;52.162;7.560;2022-08-03T05:11:45;100984.63;;;18.85;75.70
64841;BME280;51307;52.162;7.560;2022-08-03T05:14:10;100984.41;;;18.87;75.83
64841;BME280;51307;52.162;7.560;2022-08-03T05:16:36;100981.97;;;18.92;75.56
64841;BME280;51307;52.162;7.560;2022-08-03T05:19:01;100986.44;;;18.98;75.38
64841;BME280;51307;52.162;7.560;2022-08-03T05:21:27;100985.44;;;19.06;75.51
64841;BME280;51307;52.162;7.560;2022-08-03T05:23:52;100994.44;;;19.11;75.29
64841;BME280;51307;52.162;7.560;2022-08-03T05:26:18;100987.28;;;19.19;75.22
64841;BME280;51307;52.162;7.560;2022-08-03T05:28:43;100994.63;;;19.23;75.20
64841;BME280;51307;52.162;7.560;2022-08-03T05:31:09;100990.31;;;19.29;74.93
64841;BME280;51307;52.162;7.560;2022-08-03T05:33:35;100989.50;;;19.35;74.98
64841;BME280;51307;52.162;7.560;2022-08-03T05:36:00;100981.16;;;19.38;75.13
64841;BME280;51307;52.162;7.560;2022-08-03T05:38:26;100988.25;;;19.44;75.29
64841;BME280;51307;52.162;7.560;2022-08-03T05:40:51;100993.75;;;19.49;75.04
64841;BME280;51307;52.162;7.560;2022-08-03T05:43:17;100986.81;;;19.55;74.87
64841;BME280;51307;52.162;7.560;2022-08-03T05:45:42;100989.25;;;19.57;74.75
64841;BME280;51307;52.162;7.560;2022-08-03T05:48:08;100992.31;;;19.60;74.85
64841;BME280;51307;52.162;7.560;2022-08-03T05:50:33;100992.69;;;19.64;74.90
64841;BME280;51307;52.162;7.560;2022-08-03T05:53:00;100994.53;;;19.70;74.82
64841;BME280;51307;52.162;7.560;2022-08-03T05:55:26;100986.38;;;19.71;74.90
64841;BME280;51307;52.162;7.560;2022-08-03T05:57:52;100987.59;;;19.75;74.90
64841;BME280;51307;52.162;7.560;2022-08-03T06:00:17;100991.41;;;19.80;74.65
64841;BME280;51307;52.162;7.560;2022-08-03T06:02:43;100988.75;;;19.86;75.04
64841;BME280;51307;52.162;7.560;2022-08-03T06:05:09;100989.78;;;19.92;74.87
64841;BME280;51307;52.162;7.560;2022-08-03T06:07:35;100995.50;;;19.95;75.02
64841;BME280;51307;52.162;7.560;2022-08-03T06:10:01;100992.22;;;20.00;74.97
64841;BME280;51307;52.162;7.560;2022-08-03T06:12:28;100987.88;;;20.06;75.07
64841;BME280;51307;52.162;7.560;2022-08-03T06:14:54;100994.00;;;20.13;75.24
64841;BME280;51307;52.162;7.560;2022-08-03T06:17:19;100990.72;;;20.17;75.15
64841;BME280;51307;52.162;7.560;2022-08-03T06:19:45;100991.69;;;20.23;75.08
64841;BME280;51307;52.162;7.560;2022-08-03T06:22:10;100991.03;;;20.28;74.97
64841;BME280;51307;52.162;7.560;2022-08-03T06:24:36;100992.66;;;20.35;74.89
64841;BME280;51307;52.162;7.560;2022-08-03T06:27:02;100994.44;;;20.42;74.65
64841;BME280;51307;52.162;7.560;2022-08-03T06:29:27;100994.63;;;20.47;74.90
64841;BME280;51307;52.162;7.560;2022-08-03T06:31:53;101001.72;;;20.53;74.37
64841;BME280;51307;52.162;7.560;2022-08-03T06:34:18;100999.84;;;20.60;73.66
64841;BME280;51307;52.162;7.560;2022-08-03T06:36:44;100996.69;;;20.70;73.64
64841;BME280;51307;52.162;7.560;2022-08-03T06:39:09;100994.03;;;20.76;73.76
64841;BME280;51307;52.162;7.560;2022-08-03T06:41:35;100997.47;;;20.84;73.27
64841;BME280;51307;52.162;7.560;2022-08-03T06:44:00;100988.41;;;20.91;73.07
64841;BME280;51307;52.162;7.560;2022-08-03T06:46:26;100989.41;;;20.97;72.84
64841;BME280;51307;52.162;7.560;2022-08-03T06:48:51;100996.25;;;21.05;72.59
64841;BME280;51307;52.162;7.560;2022-08-03T06:51:17;100994.59;;;21.10;72.18
64841;BME280;51307;52.162;7.560;2022-08-03T06:53:42;100996.38;;;21.16;72.40
64841;BME280;51307;52.162;7.560;2022-08-03T06:56:08;100998.13;;;21.23;71.48
64841;BME280;51307;52.162;7.560;2022-08-03T06:58:33;100997.06;;;21.30;71.27
64841;BME280;51307;52.162;7.560;2022-08-03T07:00:59;101000.47;;;21.37;71.37
64841;BME280;51307;52.162;7.560;2022-08-03T07:03:26;100993.69;;;21.42;71.12
64841;BME280;51307;52.162;7.560;2022-08-03T07:05:51;100998.31;;;21.46;71.14
64841;BME280;51307;52.162;7.560;2022-08-03T07:08:17;100997.47;;;21.52;70.63
64841;BME280;51307;52.162;7.560;2022-08-03T07:10:44;101001.09;;;21.58;70.80
64841;BME280;51307;52.162;7.560;2022-08-03T07:13:10;101002.88;;;21.64;70.58
64841;BME280;51307;52.162;7.560;2022-08-03T07:15:36;100999.13;;;21.72;70.72
64841;BME280;51307;52.162;7.560;2022-08-03T07:18:02;101015.59;;;21.80;70.22
64841;BME280;51307;52.162;7.560;2022-08-03T07:20:27;101008.34;;;21.88;69.67
64841;BME280;51307;52.162;7.560;2022-08-03T07:22:53;101006.41;;;21.95;68.88
64841;BME280;51307;52.162;7.560;2022-08-03T07:25:19;101003.44;;;22.03;68.87
64841;BME280;51307;52.162;7.560;2022-08-03T07:27:46;101011.94;;;22.12;68.69
64841;BME280;51307;52.162;7.560;2022-08-03T07:30:13;101015.31;;;22.19;68.62
64841;BME280;51307;52.162;7.560;2022-08-03T07:32:39;101015.03;;;22.27;68.33
64841;BME280;51307;52.162;7.560;2022-08-03T07:35:06;101017.94;;;22.37;67.91
64841;BME280;51307;52.162;7.560;2022-08-03T07:37:32;101019.28;;;22.47;67.35
64841;BME280;51307;52.162;7.560;2022-08-03T07:40:00;101017.31;;;22.54;66.74
64841;BME280;51307;52.162;7.560;2022-08-03T07:42:27;101020.91;;;22.59;66.56
64841;BME280;51307;52.162;7.560;2022-08-03T07:44:53;101021.66;;;22.67;65.96
64841;BME280;51307;52.162;7.560;2022-08-03T07:47:24;101010.91;;;22.73;65.98
64841;BME280;51307;52.162;7.560;2022-08-03T07:49:50;101011.59;;;22.80;65.23
64841;BME280;51307;52.162;7.560;2022-08-03T07:52:15;101010.44;;;22.88;65.46
64841;BME280;51307;52.162;7.560;2022-08-03T07:54:59;101016.72;;;22.94;64.91
64841;BME280;51307;52.162;7.560;2022-08-03T07:57:25;101020.09;;;23.01;65.04
64841;BME280;51307;52.162;7.560;2022-08-03T07:59:51;101013.50;;;23.03;64.71
64841;BME280;51307;52.162;7.560;2022-08-03T08:02:16;101016.53;;;23.07;64.58
64841;BME280;51307;52.162;7.560;2022-08-03T08:04:42;101013.16;;;23.12;64.08
64841;BME280;51307;52.162;7.560;2022-08-03T08:07:07;101016.75;;;23.17;64.22
64841;BME280;51307;52.162;7.560;2022-08-03T08:09:33;101009.47;;;23.24;64.23
64841;BME280;51307;52.162;7.560;2022-08-03T08:11:59;101014.91;;;23.30;63.69
64841;BME280;51307;52.162;7.560;2022-08-03T08:14:25;101004.59;;;23.33;63.35
64841;BME280;51307;52.162;7.560;2022-08-03T08:16:50;101005.50;;;23.39;62.98
64841;BME280;51307;52.162;7.560;2022-08-03T08:19:16;101008.63;;;23.48;62.98
64841;BME280;51307;52.162;7.560;2022-08-03T08:21:43;100999.34;;;23.50;62.96
64841;BME280;51307;52.162;7.560;2022-08-03T08:24:09;101005.59;;;23.56;62.95
64841;BME280;51307;52.162;7.560;2022-08-03T08:26:35;101000.38;;;23.61;62.57
64841;BME280;51307;52.162;7.560;2022-08-03T08:29:01;101001.31;;;23.66;62.06
64841;BME280;51307;52.162;7.560;2022-08-03T08:31:26;101002.72;;;23.69;61.77
64841;BME280;51307;52.162;7.560;2022-08-03T08:33:52;101001.44;;;23.72;61.59
64841;BME280;51307;52.162;7.560;2022-08-03T08:36:17;101010.34;;;23.77;61.47
64841;BME280;51307;52.162;7.560;2022-08-03T08:38:43;101003.75;;;23.80;61.78
64841;BME280;51307;52.162;7.560;2022-08-03T08:41:13;101005.69;;;23.84;61.66
64841;BME280;51307;52.162;7.560;2022-08-03T08:43:39;101012.41;;;23.87;61.32
64841;BME280;51307;52.162;7.560;2022-08-03T08:46:11;101014.28;;;23.86;61.07
64841;BME280;51307;52.162;7.560;2022-08-03T08:48:40;101016.22;;;23.91;60.72
64841;BME280;51307;52.162;7.560;2022-08-03T08:51:07;101018.75;;;23.98;61.03
64841;BME280;51307;52.162;7.560;2022-08-03T08:53:35;101016.19;;;24.03;60.37
64841;BME280;51307;52.162;7.560;2022-08-03T08:56:02;101028.56;;;24.09;60.37
64841;BME280;51307;52.162;7.560;2022-08-03T08:58:36;101023.09;;;24.16;59.75
64841;BME280;51307;52.162;7.560;2022-08-03T09:01:02;101024.81;;;24.22;59.77
64841;BME280;51307;52.162;7.560;2022-08-03T09:03:29;101026.78;;;24.26;59.62
64841;BME280;51307;52.162;7.560;2022-08-03T09:05:54;101032.69;;;24.28;59.45
64841;BME280;51307;52.162;7.560;2022-08-03T09:08:20;101026.63;;;24.33;59.46
64841;BME280;51307;52.162;7.560;2022-08-03T09:10:47;101027.78;;;24.37;60.15
64841;BME280;51307;52.162;7.560;2022-08-03T09:13:13;101028.94;;;24.41;59.33
64841;BME280;51307;52.162;7.560;2022-08-03T09:15:38;101027.16;;;24.47;58.95
64841;BME280;51307;52.162;7.560;2022-08-03T09:18:04;101024.59;;;24.52;58.87
64841;BME280;51307;52.162;7.560;2022-08-03T09:20:33;101030.25;;;24.56;59.05
64841;BME280;51307;52.162;7.560;2022-08-03T09:23:04;101024.44;;;24.59;58.67
64841;BME280;51307;52.162;7.560;2022-08-03T09:28:10;101025.50;;;24.58;59.10
64841;BME280;51307;52.162;7.560;2022-08-03T09:30:37;101011.41;;;24.62;59.32
64841;BME280;51307;52.162;7.560;2022-08-03T09:33:07;101015.00;;;24.68;59.15
64841;BME280;51307;52.162;7.560;2022-08-03T09:35:38;101018.81;;;24.72;58.85
64841;BME280;51307;52.162;7.560;2022-08-03T09:40:37;101011.44;;;24.79;58.46
64841;BME280;51307;52.162;7.560;2022-08-03T09:43:03;101013.59;;;24.82;58.61
64841;BME280;51307;52.162;7.560;2022-08-03T09:45:31;101016.38;;;24.87;57.84
64841;BME280;51307;52.162;7.560;2022-08-03T09:47:56;101015.66;;;24.92;57.99
64841;BME280;51307;52.162;7.560;2022-08-03T09:50:24;101022.94;;;24.97;58.05
64841;BME280;51307;52.162;7.560;2022-08-03T09:52:50;101016.63;;;25.03;58.14
64841;BME280;51307;52.162;7.560;2022-08-03T09:55:16;101015.34;;;25.05;57.25
64841;BME280;51307;52.162;7.560;2022-08-03T09:57:44;101014.03;;;25.08;57.29
64841;BME280;51307;52.162;7.560;2022-08-03T10:00:15;101022.13;;;25.13;57.25
64841;BME280;51307;52.162;7.560;2022-08-03T10:02:43;101024.34;;;25.16;56.40
64841;BME280;51307;52.162;7.560;2022-08-03T10:05:10;101013.72;;;25.21;55.59
64841;BME280;51307;52.162;7.560;2022-08-03T10:07:45;101020.13;;;25.20;55.75
64841;BME280;51307;52.162;7.560;2022-08-03T10:10:12;101018.47;;;25.19;55.61
64841;BME280;51307;52.162;7.560;2022-08-03T10:12:40;101013.13;;;25.19;55.75
64841;BME280;51307;52.162;7.560;2022-08-03T10:15:06;101015.91;;;25.24;56.28
64841;BME280;51307;52.162;7.560;2022-08-03T10:17:32;101010.06;;;25.27;55.83
64841;BME280;51307;52.162;7.560;2022-08-03T10:19:58;101028.75;;;25.27;55.76
64841;BME280;51307;52.162;7.560;2022-08-03T10:22:32;101020.56;;;25.34;55.67
64841;BME280;51307;52.162;7.560;2022-08-03T10:27:33;101009.38;;;25.37;55.70
64841;BME280;51307;52.162;7.560;2022-08-03T10:30:01;101015.06;;;25.41;55.49
64841;BME280;51307;52.162;7.560;2022-08-03T10:32:35;101011.31;;;25.42;55.35
64841;BME280;51307;52.162;7.560;2022-08-03T10:37:40;101008.53;;;25.54;55.59
64841;BME280;51307;52.162;7.560;2022-08-03T10:40:12;101006.25;;;25.62;55.45
64841;BME280;51307;52.162;7.560;2022-08-03T10:42:41;101007.66;;;25.70;54.51
64841;BME280;51307;52.162;7.560;2022-08-03T10:45:18;101004.78;;;25.72;54.49
64841;BME280;51307;52.162;7.560;2022-08-03T10:47:49;101006.94;;;25.75;53.85
64841;BME280;51307;52.162;7.560;2022-08-03T10:50:17;100999.44;;;25.72;53.83
64841;BME280;51307;52.162;7.560;2022-08-03T10:53:01;101006.88;;;25.69;53.61
64841;BME280;51307;52.162;7.560;2022-08-03T10:55:41;101001.75;;;25.68;53.87
64841;BME280;51307;52.162;7.560;2022-08-03T10:58:51;100994.09;;;25.72;54.04
64841;BME280;51307;52.162;7.560;2022-08-03T11:01:19;100996.00;;;25.76;53.84
64841;BME280;51307;52.162;7.560;2022-08-03T11:06:29;100982.75;;;25.86;53.31
64841;BME280;51307;52.162;7.560;2022-08-03T11:11:40;100984.16;;;25.94;53.89
64841;BME280;51307;52.162;7.560;2022-08-03T11:14:09;100985.28;;;25.98;54.10
64841;BME280;51307;52.162;7.560;2022-08-03T11:19:12;100976.75;;;26.01;54.18
64841;BME280;51307;52.162;7.560;2022-08-03T11:30:08;100968.38;;;26.20;52.31
64841;BME280;51307;52.162;7.560;2022-08-03T11:37:31;100974.09;;;26.28;51.75
64841;BME280;51307;52.162;7.560;2022-08-03T11:39:57;100964.75;;;26.31;51.79
64841;BME280;51307;52.162;7.560;2022-08-03T11:44:49;100971.78;;;26.37;51.50
64841;BME280;51307;52.162;7.560;2022-08-03T11:47:16;100968.59;;;26.40;51.15
64841;BME280;51307;52.162;7.560;2022-08-03T11:49:46;100963.03;;;26.47;50.73
64841;BME280;51307;52.162;7.560;2022-08-03T11:52:13;100965.72;;;26.47;50.54
64841;BME280;51307;52.162;7.560;2022-08-03T11:54:39;100965.75;;;26.52;50.58
64841;BME280;51307;52.162;7.560;2022-08-03T11:57:05;100970.88;;;26.59;50.93
64841;BME280;51307;52.162;7.560;2022-08-03T11:59:35;100977.91;;;26.65;51.14
64841;BME280;51307;52.162;7.560;2022-08-03T12:02:10;100973.34;;;26.65;50.05
64841;BME280;51307;52.162;7.560;2022-08-03T12:04:56;100966.69;;;26.68;49.47
64841;BME280;51307;52.162;7.560;2022-08-03T12:07:27;100964.84;;;26.73;50.33
64841;BME280;51307;52.162;7.560;2022-08-03T12:10:07;100965.97;;;26.83;49.79
64841;BME280;51307;52.162;7.560;2022-08-03T12:12:32;100952.88;;;26.86;49.25
64841;BME280;51307;52.162;7.560;2022-08-03T12:14:59;100958.53;;;26.90;48.55
64841;BME280;51307;52.162;7.560;2022-08-03T12:17:39;100954.00;;;26.96;48.20
64841;BME280;51307;52.162;7.560;2022-08-03T12:20:08;100957.00;;;26.99;48.62
64841;BME280;51307;52.162;7.560;2022-08-03T12:22:36;100954.34;;;27.04;49.39
64841;BME280;51307;52.162;7.560;2022-08-03T12:25:06;100955.19;;;27.10;49.37
64841;BME280;51307;52.162;7.560;2022-08-03T12:27:33;100955.22;;;27.15;49.57
64841;BME280;51307;52.162;7.560;2022-08-03T12:29:59;100945.06;;;27.22;48.80
64841;BME280;51307;52.162;7.560;2022-08-03T12:32:29;100945.91;;;27.33;47.63
64841;BME280;51307;52.162;7.560;2022-08-03T12:34:58;100940.88;;;27.42;47.85
64841;BME280;51307;52.162;7.560;2022-08-03T12:37:25;100935.81;;;27.50;47.48
64841;BME280;51307;52.162;7.560;2022-08-03T12:39:53;100937.69;;;27.50;48.23
64841;BME280;51307;52.162;7.560;2022-08-03T12:42:18;100938.50;;;27.50;48.22
64841;BME280;51307;52.162;7.560;2022-08-03T12:44:44;100945.44;;;27.46;48.19
64841;BME280;51307;52.162;7.560;2022-08-03T12:47:11;100933.91;;;27.51;47.28
64841;BME280;51307;52.162;7.560;2022-08-03T12:49:48;100933.97;;;27.56;46.75
64841;BME280;51307;52.162;7.560;2022-08-03T12:52:15;100944.19;;;27.64;46.82
64841;BME280;51307;52.162;7.560;2022-08-03T12:54:41;100939.41;;;27.71;47.63
64841;BME280;51307;52.162;7.560;2022-08-03T12:57:12;100942.09;;;27.77;46.76
64841;BME280;51307;52.162;7.560;2022-08-03T12:59:39;100929.47;;;27.82;46.00
64841;BME280;51307;52.162;7.560;2022-08-03T13:02:18;100936.22;;;27.85;46.00
64841;BME280;51307;52.162;7.560;2022-08-03T13:04:45;100934.31;;;27.90;46.72
64841;BME280;51307;52.162;7.560;2022-08-03T13:07:13;100933.00;;;27.98;46.59
64841;BME280;51307;52.162;7.560;2022-08-03T13:12:15;100932.50;;;28.11;45.21
64841;BME280;51307;52.162;7.560;2022-08-03T13:14:42;100935.72;;;28.13;43.89
64841;BME280;51307;52.162;7.560;2022-08-03T13:17:08;100934.91;;;28.18;43.80
64841;BME280;51307;52.162;7.560;2022-08-03T13:19:38;100927.13;;;28.22;43.30
64841;BME280;51307;52.162;7.560;2022-08-03T13:24:48;100936.81;;;28.38;43.65
64841;BME280;51307;52.162;7.560;2022-08-03T13:27:15;100933.56;;;28.46;43.62
64841;BME280;51307;52.162;7.560;2022-08-03T13:29:41;100935.47;;;28.51;43.58
64841;BME280;51307;52.162;7.560;2022-08-03T13:32:08;100931.72;;;28.52;43.51
64841;BME280;51307;52.162;7.560;2022-08-03T13:34:34;100933.03;;;28.54;43.29
64841;BME280;51307;52.162;7.560;2022-08-03T13:36:59;100937.34;;;28.61;43.38
64841;BME280;51307;52.162;7.560;2022-08-03T13:39:25;100926.56;;;28.66;43.96
64841;BME280;51307;52.162;7.560;2022-08-03T13:41:50;100931.97;;;28.71;43.18
64841;BME280;51307;52.162;7.560;2022-08-03T13:44:18;100931.13;;;28.70;41.95
64841;BME280;51307;52.162;7.560;2022-08-03T13:46:44;100932.75;;;28.71;41.92
64841;BME280;51307;52.162;7.560;2022-08-03T13:49:10;100922.84;;;28.67;42.17